Batman, Turkey

5:16 PM +03 on February 20, 2017 (GMT +0300)
Batman Air Base | | Change Station

Elev 1772 ft 37.88 °N, 41.12 °E | Updated 26 minutes ago

Clear
Clear
55 °F
Feels Like 55 °F
N
4
Wind Variable Wind from NNE

Today
High -- | Low -- °F
--% Chance of Precip.
Yesterday
High -- | Low -- °F
Precip. -- in
Pressure 30.15 in
Visibility -9999.0 miles
Clouds
Dew Point 19 °F
Humidity 25%
Rainfall 0.00 in
Snow Depth Not available.
6:59 AM 5:59 PM
Waning Crescent, 34% visible
METAR LTCJ 201350Z 02003KT CAVOK 13/M07 Q1021 RMK RWY20 00000KT
Pressure 30.15 in
Visibility -9999.0 miles
Clouds
Dew Point 19 °F
Humidity 25%
Rainfall 0.00 in
Snow Depth Not available.
6:59 AM 5:59 PM
Waning Crescent, 34% visible
METAR LTCJ 201350Z 02003KT CAVOK 13/M07 Q1021 RMK RWY20 00000KT

Get Your Daily Forecast Email!

Thanks for signing up!

Be on the lookout for a verification email in your inbox.

You'll start receiving the daily forecast at 8 AM.

×

10-Day Weather Forecast

×

Almanac

Astronomy

Feb. 20, 2017 Rise Set
Actual Time
Civil Twilight
Nautical Twilight
Astronomical Twilight
Moon
Length of Visible Light
Length of Day
Tomorrow will be .
, % of the Moon is Illuminated

Today's Extremes

Country Highs Country Lows

Community

WunderPhotos

Upload Photos

1,962,540 photos uploaded!

WunderBlog® & News

Nearby

Air Quality

  Air Quality AQ Index Pollutant
Not available.

Snow Depth

Station Depth Elevation

Earthquake Activity

City Distance Mag. Time & Date
Minimum magnitude displayed is 2.5.

Coastal Water Temperatures

Place Temperature

Stations

Nearby Weather Stations

Station Location Temp. Windchill Dew Point Humidity Wind Precip. Elev Updated Type